Meteo Giornale » Osservazioni meteo Italia » Brescia-Montichiari

ore: 23:50 - Osservazioni Meteo Brescia-Montichiari
Lat. 45° 24' N Lon. 10° 18' E Alt. 104 metri s.l.m.

sereno Europe/Rome

1 °C

Sereno

Temp. 24 Ore

0 °C

10 °C

Est/Nord-Est

11.1 Km/h

Dew point -5 °C

Umidità 64 %

Visibilità  10 Km

Il sole sorge alle ore 07:47

Il sole tramonta alle ore 16:37

Data e Ora Cielo e Fenomeni T °C DP °C Um. % Pres. hPa Vis. km Vento km/h
Ieri h: 23:50 sereno Sereno 1 -5 64 1018 10 E/NE 11.1
Ieri h: 22:50 sereno Sereno 0 -5 68 1018 10 N 5.5
Ieri h: 21:50 sereno Sereno 1 -5 64 1018 10 E/NE 11.1
Ieri h: 20:50 sereno Sereno 1 -5 64 1018 10 NE 9.3
Ieri h: 19:50 sereno Sereno 0 -5 68 1018 10 N 5.5
Ieri h: 18:50 sereno Sereno 3 -6 51 1018 10 N 5.5
Ieri h: 17:50 sereno Sereno 5 -7 41 1018 10 N 3.7
Ieri h: 16:50 sereno Sereno 6 -8 35 1018 10 N 3.7
Ieri h: 15:50 sereno Sereno 8 -9 28 1018 10 S/SE 9.3
Ieri h: 14:50 sereno Sereno 9 -7 31 1018 10 S/SE 7.4
Ieri h: 13:50 sereno Sereno 10 -10 23 1018 10 NE 9.3
Ieri h: 12:50 sereno Sereno 9 -9 26 1019 10 NE 16.7
Ieri h: 11:50 sereno Sereno 8 -7 33 1020 10 NE 16.7
Ieri h: 10:50 sereno Sereno 8 -8 31 1020 10 NE 11.1
Ieri h: 09:50 sereno Sereno 5 -9 35 1020 10 N 5.5
Ieri h: 08:50 sereno Sereno 2 -9 43 1020 10 N/NE 9.3
Ieri h: 07:50 sereno Sereno 0 -9 50 1019 10 N 9.3
Ieri h: 06:50 sereno Sereno 3 -10 37 1018 10 N/NE 9.3
Ieri h: 05:50 sereno Sereno 3 -7 47 1018 10 E 14.8
Ieri h: 04:50 sereno Sereno 3 -10 37 1019 10 E/NE 13
Ieri h: 02:50 sereno Sereno 1 -7 55 1019 10 NE 13
Ieri h: 01:50 sereno Sereno 2 -8 47 1019 10 NE 11.1
Ieri h: 00:50 sereno Sereno 3 -8 44 1019 10 NE 13